Huvudsida
METAR-TAF:

METAR-TAF

Flygplatser :

Jeddah, Saudiarabien

latitud: 21-42N, longitud: 039-11E, höjd: 15 m

Aktuellt väderrapport

Denna rapport gjordes för 28 minuter sedan, klockan 23:00 UTC
Vind 4 kt från nord
Temperatur 23°C
Fuktighet 73%
Tryck 1012 hPa
Sikt 10 km eller mer
Inga moln under 1 500 m eller inga cumulonimbus

METAR: OEJN 222300Z 36004KT CAVOK 23/18 Q1012 NOSIG

Tid: 02:28 (23:28 UTC)

Väderprognos

Denna rapport gjordes för 6 timmar och 28 minuter sedan, klockan 17:00 UTC
Prognos gäller från 22 kl. 18 UTC till 23 kl. 24 UTC
Vind 6 kt från nord i byarna ända upp till 16 kt
Sikt: 7000 m
Få moln på en höjd av 4000 ft
Temporärt
från 23 kl. 00 UTC till 23 kl. 06 UTC
Sikt: 4000 m
torrdis, fuktdis
Blir
från 23 kl. 06 UTC till 23 kl. 08 UTC
Vind 8 kt från väst/nordväst i byarna ända upp till 18 kt

TAF: OEJN 221700Z 2218/2324 36006G16KT 7000 FEW040 TEMPO 2300/2306 4000 HZ BR BECMG 2306/2308 30008G18KT

Aktuella väderrapporter och prognoser från 4000 flygplatser (METAR- och TAF-rapporter).

De tillgängliga stationerna syns som gula och röda prickar på kartan.

För musen över prickarna för att se namnen på stationerna.

Klicka sedan för att få väderrapporter och prognoser.

För att ändra kartan: Klicka på de gröna knapparna med ett svart kors på för att zooma in; den gröna knappen med ett streck på för att zooma ut; eller på de gröna pilarna för angränsande kartor.


METAR-TAF: